createdAt,value
2018-03-06T00:01:22.395Z,80.60
2018-03-06T00:03:51.454Z,82.58
2018-03-06T00:06:20.501Z,81.18
2018-03-06T00:08:49.555Z,79.39
2018-03-06T00:11:19.380Z,81.28
2018-03-06T00:13:48.436Z,81.40
2018-03-06T00:16:17.524Z,80.20
2018-03-06T00:18:46.576Z,82.29
2018-03-06T00:21:15.635Z,79.79
2018-03-06T00:23:44.725Z,82.20
2018-03-06T00:26:13.732Z,80.10
2018-03-06T00:28:42.786Z,80.31
2018-03-06T00:31:11.851Z,81.25
2018-03-06T00:33:40.910Z,82.10
2018-03-06T00:36:09.963Z,81.66
2018-03-06T00:38:39.019Z,80.02
2018-03-06T00:41:08.063Z,82.01
2018-03-06T00:43:37.124Z,82.06
2018-03-06T00:46:06.179Z,82.49
2018-03-06T00:48:35.243Z,80.81
2018-03-06T00:51:04.291Z,84.19
2018-03-06T00:53:33.344Z,81.03
2018-03-06T00:56:02.398Z,80.27
2018-03-06T00:58:31.457Z,82.65
2018-03-06T01:01:00.520Z,82.51
2018-03-06T01:03:30.462Z,83.36
2018-03-06T01:05:59.514Z,83.58
2018-03-06T01:08:28.570Z,84.15
2018-03-06T01:10:57.635Z,85.89
2018-03-06T01:13:26.687Z,84.45
2018-03-06T01:18:30.933Z,84.48
2018-03-06T01:20:59.995Z,83.98
2018-03-06T01:23:29.948Z,82.84
2018-03-06T01:28:34.320Z,81.82
2018-03-06T01:31:03.367Z,84.54
2018-03-06T01:33:32.415Z,83.29
2018-03-06T01:36:01.474Z,81.69
2018-03-06T01:41:05.708Z,82.35
2018-03-06T01:43:34.817Z,83.02
2018-03-06T01:46:03.815Z,82.43
2018-03-06T01:48:32.877Z,84.65
2018-03-06T01:51:01.919Z,84.46
2018-03-06T01:53:30.983Z,85.11
2018-03-06T01:56:00.036Z,84.28
2018-03-06T02:01:04.379Z,82.50
2018-03-06T02:03:33.431Z,83.23
2018-03-06T02:06:02.490Z,81.92
2018-03-06T02:08:31.552Z,82.21
2018-03-06T02:11:00.614Z,85.11
2018-03-06T02:13:29.659Z,83.42
2018-03-06T02:15:58.722Z,83.85
2018-03-06T02:18:27.763Z,83.38
2018-03-06T02:20:56.819Z,84.96
2018-03-06T02:23:25.882Z,84.00
2018-03-06T02:25:55.841Z,83.86
2018-03-06T02:28:24.903Z,83.31
2018-03-06T02:30:53.999Z,83.32
2018-03-06T02:33:23.043Z,81.85
2018-03-06T02:35:52.087Z,82.02
2018-03-06T02:38:21.143Z,84.06
2018-03-06T02:40:50.192Z,82.31
2018-03-06T02:43:19.243Z,82.80
2018-03-06T02:45:48.357Z,81.45
2018-03-06T02:48:17.402Z,84.23
2018-03-06T02:50:46.462Z,84.07
2018-03-06T02:53:15.512Z,81.81
2018-03-06T02:55:44.578Z,83.62
2018-03-06T02:58:13.646Z,82.83
2018-03-06T03:00:42.695Z,82.56
2018-03-06T03:03:11.752Z,82.34
2018-03-06T03:05:40.799Z,82.53
2018-03-06T03:08:09.860Z,82.52
2018-03-06T03:10:38.949Z,83.71
2018-03-06T03:13:08.000Z,82.29
2018-03-06T03:15:37.048Z,82.77
2018-03-06T03:18:06.101Z,82.51
2018-03-06T03:20:35.194Z,83.54
2018-03-06T03:23:04.228Z,81.92
2018-03-06T03:25:33.288Z,82.71
2018-03-06T03:28:02.331Z,81.77
2018-03-06T03:30:32.376Z,83.21
2018-03-06T03:33:01.422Z,83.00
2018-03-06T03:35:30.479Z,82.12
2018-03-06T03:37:59.538Z,82.09
2018-03-06T03:40:28.587Z,82.27
2018-03-06T03:42:57.646Z,83.96
2018-03-06T03:45:30.155Z,82.24
2018-03-06T03:47:59.187Z,81.97
2018-03-06T03:50:28.246Z,83.70
2018-03-06T03:52:57.374Z,81.81
2018-03-06T03:55:26.440Z,82.17
2018-03-06T03:57:55.493Z,82.33
2018-03-06T04:00:24.544Z,82.76
2018-03-06T04:05:33.526Z,81.95
2018-03-06T04:08:02.599Z,82.50
2018-03-06T04:10:31.651Z,81.80
2018-03-06T04:13:04.157Z,83.05
2018-03-06T04:15:33.216Z,82.53
2018-03-06T04:18:02.280Z,82.55
2018-03-06T04:20:31.356Z,82.29
2018-03-06T04:23:00.399Z,83.18
2018-03-06T04:25:29.471Z,82.54
2018-03-06T04:27:58.527Z,83.18
2018-03-06T04:30:27.590Z,84.19
2018-03-06T04:32:56.638Z,83.58
2018-03-06T04:38:04.116Z,83.23
2018-03-06T04:40:33.184Z,85.13
2018-03-06T04:43:02.230Z,84.56
2018-03-06T04:45:34.486Z,83.01
2018-03-06T04:48:04.417Z,82.72
2018-03-06T04:50:33.470Z,83.66
2018-03-06T04:53:02.621Z,85.05
2018-03-06T04:55:31.705Z,83.31
2018-03-06T04:58:00.751Z,84.03
2018-03-06T05:00:29.819Z,82.97
2018-03-06T05:02:58.874Z,83.56
2018-03-06T05:05:27.960Z,83.47
2018-03-06T05:07:57.021Z,82.40
2018-03-06T05:10:26.068Z,82.58
2018-03-06T05:12:55.127Z,83.98
2018-03-06T05:15:24.207Z,84.01
2018-03-06T05:17:53.264Z,83.15
2018-03-06T05:20:22.382Z,83.19
2018-03-06T05:22:52.377Z,83.95
2018-03-06T05:25:21.432Z,82.75
2018-03-06T05:27:50.527Z,85.44
2018-03-06T05:30:19.575Z,83.04
2018-03-06T05:32:48.644Z,82.83
2018-03-06T05:35:17.700Z,83.27
2018-03-06T05:37:46.760Z,83.16
2018-03-06T05:40:15.803Z,84.34
2018-03-06T05:42:44.867Z,84.36
2018-03-06T05:45:13.942Z,85.01
2018-03-06T05:47:42.993Z,86.00
2018-03-06T05:50:12.077Z,87.40
2018-03-06T05:52:41.111Z,86.42
2018-03-06T05:55:10.180Z,84.60
2018-03-06T05:57:39.247Z,84.17
2018-03-06T06:00:08.312Z,83.10
2018-03-06T06:02:37.372Z,82.58
2018-03-06T06:05:06.429Z,82.90
2018-03-06T06:07:35.478Z,82.36
2018-03-06T06:10:04.568Z,82.83
2018-03-06T06:12:33.628Z,82.86
2018-03-06T06:15:02.669Z,82.14
2018-03-06T06:17:31.736Z,82.12
2018-03-06T06:20:00.805Z,81.63
2018-03-06T06:22:30.171Z,81.01
2018-03-06T06:25:01.939Z,81.38
2018-03-06T06:27:31.359Z,82.12
2018-03-06T06:30:00.427Z,83.15
2018-03-06T06:32:29.512Z,81.18
2018-03-06T06:34:58.528Z,81.89
2018-03-06T06:37:28.052Z,81.25
2018-03-06T06:39:57.351Z,81.56
2018-03-06T06:42:27.135Z,81.15
2018-03-06T06:44:56.223Z,81.19
2018-03-06T06:47:25.282Z,80.39
2018-03-06T06:49:54.342Z,81.50
2018-03-06T06:52:23.782Z,80.47
2018-03-06T06:54:52.795Z,80.21
2018-03-06T06:57:21.844Z,79.72
2018-03-06T06:59:54.284Z,78.98
2018-03-06T07:02:23.340Z,79.19
2018-03-06T07:04:52.962Z,78.64
2018-03-06T07:07:22.025Z,77.89
2018-03-06T07:09:51.148Z,77.80
2018-03-06T07:12:20.225Z,77.81
2018-03-06T07:14:49.437Z,77.23
2018-03-06T07:17:18.483Z,76.60
2018-03-06T07:19:47.558Z,76.20
2018-03-06T07:22:16.631Z,76.07
2018-03-06T07:24:45.690Z,75.51
2018-03-06T07:27:15.656Z,75.65
2018-03-06T07:29:44.711Z,75.68
2018-03-06T07:32:13.775Z,74.93
2018-03-06T07:34:42.827Z,73.76
2018-03-06T07:39:47.720Z,74.75
2018-03-06T07:42:16.767Z,75.26
2018-03-06T07:44:48.939Z,74.83
2018-03-06T07:47:17.980Z,73.80
2018-03-06T07:49:48.981Z,73.84
2018-03-06T07:52:18.051Z,72.73
2018-03-06T07:54:47.111Z,72.64
2018-03-06T07:57:16.193Z,72.26
2018-03-06T07:59:47.204Z,72.40
2018-03-06T08:02:16.251Z,71.90
2018-03-06T08:04:45.315Z,73.41
2018-03-06T08:07:14.383Z,73.80
2018-03-06T08:09:43.438Z,73.20
2018-03-06T08:14:47.510Z,74.52
2018-03-06T08:17:16.567Z,75.36
2018-03-06T08:19:45.643Z,73.66
2018-03-06T08:22:14.701Z,74.36
2018-03-06T08:24:43.750Z,76.21
2018-03-06T08:27:12.805Z,78.50
2018-03-06T08:29:41.843Z,78.35
2018-03-06T08:32:11.055Z,76.71
2018-03-06T08:34:40.101Z,77.48
2018-03-06T08:37:09.163Z,76.44
2018-03-06T08:39:38.229Z,75.78
2018-03-06T08:42:07.277Z,76.00
2018-03-06T08:44:36.327Z,74.83
2018-03-06T08:47:05.386Z,75.04
2018-03-06T08:49:34.435Z,75.56
2018-03-06T08:52:03.501Z,75.48
2018-03-06T08:54:32.579Z,74.84
2018-03-06T08:57:02.578Z,73.83
2018-03-06T08:59:31.623Z,73.41
2018-03-06T09:02:00.678Z,73.72
2018-03-06T09:04:29.742Z,72.05
2018-03-06T09:06:58.784Z,72.97
2018-03-06T09:09:27.834Z,71.13
2018-03-06T09:11:56.881Z,70.62
2018-03-06T09:14:32.244Z,69.06
2018-03-06T09:17:05.962Z,69.10
2018-03-06T09:22:10.037Z,67.65
2018-03-06T09:24:39.093Z,68.32
2018-03-06T09:27:08.147Z,67.47
2018-03-06T09:32:12.875Z,68.19
2018-03-06T09:34:42.863Z,66.70
2018-03-06T09:37:11.916Z,66.83
2018-03-06T09:39:40.985Z,66.55
2018-03-06T09:42:10.940Z,67.90
2018-03-06T09:44:39.994Z,68.34
2018-03-06T09:47:09.045Z,69.90
2018-03-06T09:49:38.105Z,69.93
2018-03-06T09:52:07.152Z,69.66
2018-03-06T09:54:36.212Z,69.14
2018-03-06T09:57:06.170Z,68.88
2018-03-06T09:59:35.227Z,69.36
2018-03-06T10:02:04.286Z,69.15
2018-03-06T10:04:34.529Z,70.64
2018-03-06T10:07:04.842Z,70.38
2018-03-06T10:09:35.815Z,70.51
2018-03-06T10:12:05.771Z,70.44
2018-03-06T10:14:34.815Z,69.79
2018-03-06T10:17:04.088Z,69.38
2018-03-06T10:22:09.456Z,68.50
2018-03-06T10:24:39.503Z,68.68
2018-03-06T10:27:08.559Z,68.03
2018-03-06T10:29:37.608Z,68.35
2018-03-06T10:32:06.663Z,68.11
2018-03-06T10:34:35.718Z,68.30
2018-03-06T10:37:04.767Z,68.16
2018-03-06T10:39:33.826Z,69.20
2018-03-06T10:42:03.596Z,68.90
2018-03-06T10:44:35.080Z,69.35
2018-03-06T10:47:04.577Z,69.32
2018-03-06T10:49:33.588Z,69.41
2018-03-06T10:52:03.715Z,69.90
2018-03-06T10:54:34.744Z,70.50
2018-03-06T10:57:04.284Z,70.71
2018-03-06T11:02:15.424Z,70.29
2018-03-06T11:07:20.608Z,68.89
2018-03-06T11:09:50.631Z,69.47
2018-03-06T11:12:19.688Z,70.28
2018-03-06T11:14:48.735Z,70.94
2018-03-06T11:17:17.780Z,72.41
2018-03-06T11:19:46.829Z,72.10
2018-03-06T11:22:15.884Z,72.36
2018-03-06T11:24:44.964Z,72.10
2018-03-06T11:27:13.975Z,72.10
2018-03-06T11:29:43.027Z,71.12
2018-03-06T11:32:16.837Z,70.89
2018-03-06T11:34:45.900Z,70.61
2018-03-06T11:39:50.167Z,70.77
2018-03-06T11:42:19.226Z,70.13
2018-03-06T11:44:48.271Z,69.62
2018-03-06T11:47:17.316Z,68.97
2018-03-06T11:49:46.374Z,68.39
2018-03-06T11:52:15.420Z,68.22
2018-03-06T11:54:44.487Z,67.71
2018-03-06T11:57:13.550Z,67.09
2018-03-06T11:59:42.602Z,67.67
2018-03-06T12:02:11.648Z,67.00
2018-03-06T12:04:40.715Z,68.09
2018-03-06T12:07:09.870Z,68.59
2018-03-06T12:09:38.900Z,68.73
2018-03-06T12:12:08.851Z,69.85
2018-03-06T12:14:37.903Z,68.89
2018-03-06T12:17:06.964Z,69.37
2018-03-06T12:19:36.034Z,69.45
2018-03-06T12:22:05.501Z,68.28
2018-03-06T12:24:34.558Z,68.36
2018-03-06T12:29:39.239Z,67.25
2018-03-06T12:32:08.297Z,66.68
2018-03-06T12:34:37.371Z,66.08
2018-03-06T12:37:06.414Z,66.22
2018-03-06T12:39:35.474Z,66.53
2018-03-06T12:42:04.519Z,65.27
2018-03-06T12:44:33.576Z,62.88
2018-03-06T12:47:04.739Z,63.54
2018-03-06T12:49:34.716Z,65.33
2018-03-06T12:52:07.214Z,64.84
2018-03-06T12:54:36.263Z,63.90
2018-03-06T12:57:05.302Z,65.36
2018-03-06T12:59:35.358Z,67.14
2018-03-06T13:02:04.407Z,64.16
2018-03-06T13:04:33.471Z,63.83
2018-03-06T13:07:02.522Z,63.66
2018-03-06T13:09:32.501Z,64.21
2018-03-06T13:12:01.635Z,64.53
2018-03-06T13:14:31.226Z,62.84
2018-03-06T13:17:00.266Z,62.28
2018-03-06T13:19:29.338Z,61.62
2018-03-06T13:21:58.397Z,59.42
2018-03-06T13:24:27.451Z,59.82
2018-03-06T13:26:56.500Z,60.12
2018-03-06T13:29:25.576Z,59.39
2018-03-06T13:31:54.629Z,58.66
2018-03-06T13:34:23.678Z,61.17
2018-03-06T13:36:52.855Z,61.44
2018-03-06T13:39:21.901Z,59.36
2018-03-06T13:41:50.964Z,59.63
2018-03-06T13:44:20.021Z,59.53
2018-03-06T13:46:49.141Z,60.17
2018-03-06T13:49:18.193Z,59.17
2018-03-06T13:51:47.244Z,60.01
2018-03-06T13:54:16.314Z,60.14
2018-03-06T13:56:45.363Z,59.73
2018-03-06T14:01:49.617Z,61.17
2018-03-06T14:04:19.579Z,60.85
2018-03-06T14:06:48.630Z,62.14
2018-03-06T14:09:17.690Z,61.33
2018-03-06T14:11:54.521Z,62.02
2018-03-06T14:14:24.384Z,62.33
2018-03-06T14:16:53.440Z,63.14
2018-03-06T14:19:22.509Z,64.01
2018-03-06T14:21:51.564Z,62.98
2018-03-06T14:24:20.633Z,63.16
2018-03-06T14:26:53.205Z,62.38
2018-03-06T14:29:23.151Z,62.14
2018-03-06T14:31:52.220Z,61.39
2018-03-06T14:34:21.284Z,61.49
2018-03-06T14:36:50.353Z,62.24
2018-03-06T14:39:19.410Z,62.70
2018-03-06T14:44:23.669Z,63.38
2018-03-06T14:46:52.708Z,64.58
2018-03-06T14:49:21.763Z,64.19
2018-03-06T14:51:55.147Z,64.50
2018-03-06T14:54:27.292Z,64.78
2018-03-06T14:57:00.595Z,65.27
2018-03-06T15:02:06.519Z,65.80
2018-03-06T15:04:35.582Z,66.84
2018-03-06T15:07:06.223Z,67.39
2018-03-06T15:09:35.243Z,67.52
2018-03-06T15:12:04.326Z,67.97
2018-03-06T15:14:33.378Z,68.61
2018-03-06T15:17:02.431Z,68.12
2018-03-06T15:19:31.491Z,68.24
2018-03-06T15:22:00.543Z,68.30
2018-03-06T15:24:31.568Z,67.08
2018-03-06T15:27:01.387Z,69.30
2018-03-06T15:29:34.665Z,68.95
2018-03-06T15:32:03.981Z,67.71
2018-03-06T15:34:42.257Z,67.28
2018-03-06T15:37:20.706Z,67.57
2018-03-06T15:39:57.015Z,68.01
2018-03-06T15:42:28.867Z,68.08
2018-03-06T15:44:59.828Z,67.03
2018-03-06T15:47:28.896Z,67.24
2018-03-06T15:49:57.942Z,67.95
2018-03-06T15:52:27.037Z,68.14
2018-03-06T15:54:56.082Z,67.93
2018-03-06T15:57:28.938Z,67.98
2018-03-06T15:59:58.490Z,68.85
2018-03-06T16:02:38.209Z,69.19
2018-03-06T16:05:07.268Z,69.67
2018-03-06T16:07:36.326Z,70.72
2018-03-06T16:10:05.382Z,70.87
2018-03-06T16:12:34.430Z,70.67
2018-03-06T16:15:03.492Z,72.05
2018-03-06T16:17:32.548Z,71.23
2018-03-06T16:20:01.635Z,72.21
2018-03-06T16:22:31.607Z,71.23
2018-03-06T16:25:00.668Z,73.19
2018-03-06T16:27:29.759Z,72.08
2018-03-06T16:32:34.951Z,73.19
2018-03-06T16:35:17.665Z,73.25
2018-03-06T16:37:46.720Z,73.74
2018-03-06T16:42:51.076Z,72.86
2018-03-06T16:45:21.245Z,72.86
2018-03-06T16:47:59.241Z,72.59
2018-03-06T16:50:28.268Z,74.00
2018-03-06T16:53:01.540Z,73.54
2018-03-06T16:55:32.496Z,74.30
2018-03-06T16:58:02.504Z,76.43
2018-03-06T17:00:31.580Z,75.23
2018-03-06T17:03:02.550Z,76.77
2018-03-06T17:05:31.604Z,75.54
2018-03-06T17:08:00.669Z,78.22
2018-03-06T17:10:29.805Z,78.05
2018-03-06T17:12:58.854Z,77.60
2018-03-06T17:15:28.032Z,76.61
2018-03-06T17:20:33.540Z,79.97
2018-03-06T17:23:02.679Z,77.58
2018-03-06T17:25:31.752Z,78.30
2018-03-06T17:28:00.932Z,79.78
2018-03-06T17:30:30.045Z,80.61
2018-03-06T17:32:59.411Z,81.51
2018-03-06T17:35:28.665Z,81.08
2018-03-06T17:37:57.775Z,81.76
2018-03-06T17:40:26.833Z,80.61
2018-03-06T17:42:55.890Z,80.33
2018-03-06T17:45:25.027Z,80.64
2018-03-06T17:47:54.133Z,82.26
2018-03-06T17:50:23.314Z,80.97
2018-03-06T17:52:52.812Z,82.80
2018-03-06T17:55:22.905Z,81.51
2018-03-06T17:57:52.047Z,81.64
2018-03-06T18:00:21.184Z,80.32
2018-03-06T18:02:51.209Z,80.80
2018-03-06T18:05:21.226Z,81.82
2018-03-06T18:07:50.561Z,80.65
2018-03-06T18:10:19.814Z,80.90
2018-03-06T18:12:48.913Z,80.06
2018-03-06T18:15:19.075Z,82.06
2018-03-06T18:17:48.175Z,81.84
2018-03-06T18:20:17.571Z,83.23
2018-03-06T18:22:46.637Z,83.66
2018-03-06T18:25:15.726Z,81.75
2018-03-06T18:27:44.763Z,83.64
2018-03-06T18:30:14.158Z,83.07
2018-03-06T18:32:46.521Z,81.77
2018-03-06T18:35:15.656Z,82.55
2018-03-06T18:40:19.927Z,81.46
2018-03-06T18:45:25.221Z,80.67
2018-03-06T18:47:54.305Z,80.83
2018-03-06T18:50:41.112Z,82.43
2018-03-06T18:53:10.212Z,82.35
2018-03-06T18:55:39.294Z,83.03
2018-03-06T18:58:08.442Z,82.09
2018-03-06T19:04:05.922Z,82.28
2018-03-06T19:09:20.956Z,84.09
2018-03-06T19:11:51.158Z,85.05
2018-03-06T19:14:20.464Z,86.88
2018-03-06T19:16:49.791Z,87.81
2018-03-06T19:19:18.904Z,85.56
2018-03-06T19:21:56.668Z,84.78
2018-03-06T19:24:25.780Z,85.92
2018-03-06T19:26:56.280Z,85.37
2018-03-06T19:29:25.329Z,86.18
2018-03-06T19:31:54.535Z,86.58
2018-03-06T19:34:23.883Z,86.39
2018-03-06T19:36:53.082Z,87.66
2018-03-06T19:39:22.124Z,87.86
2018-03-06T19:41:51.179Z,87.46
2018-03-06T19:44:20.303Z,87.13
2018-03-06T19:46:49.283Z,84.82
2018-03-06T19:49:29.562Z,86.53
2018-03-06T19:51:58.675Z,87.85
2018-03-06T19:54:27.759Z,87.46
2018-03-06T19:56:56.848Z,88.24
2018-03-06T19:59:25.897Z,85.57
2018-03-06T20:01:54.997Z,84.99
2018-03-06T20:04:24.083Z,87.15
2018-03-06T20:06:53.221Z,88.73
2018-03-06T20:09:22.302Z,88.28
2018-03-06T20:11:53.204Z,88.20
2018-03-06T20:14:27.749Z,87.16
2018-03-06T20:16:56.954Z,87.99
2018-03-06T20:19:31.650Z,88.28
2018-03-06T20:22:00.853Z,88.85
2018-03-06T20:27:05.240Z,88.11
2018-03-06T20:29:35.225Z,86.95
2018-03-06T20:32:10.522Z,87.76
2018-03-06T20:37:15.244Z,87.72
2018-03-06T20:39:49.664Z,87.07
2018-03-06T20:42:18.717Z,87.06
2018-03-06T20:44:47.771Z,85.99
2018-03-06T20:47:22.441Z,87.10
2018-03-06T20:49:51.576Z,87.06
2018-03-06T20:52:26.286Z,87.80
2018-03-06T20:55:01.440Z,88.42
2018-03-06T20:57:30.517Z,88.03
2018-03-06T20:59:59.593Z,88.78
2018-03-06T21:02:28.701Z,87.56
2018-03-06T21:04:57.779Z,87.90
2018-03-06T21:07:28.703Z,86.68
2018-03-06T21:09:57.772Z,86.45
2018-03-06T21:12:26.950Z,88.19
2018-03-06T21:14:55.971Z,87.65
2018-03-06T21:17:25.115Z,87.92
2018-03-06T21:19:54.232Z,88.90
2018-03-06T21:22:23.297Z,90.20
2018-03-06T21:24:52.392Z,89.73
2018-03-06T21:29:56.726Z,89.06
2018-03-06T21:32:25.824Z,89.27
2018-03-06T21:35:03.491Z,89.81
2018-03-06T21:37:32.589Z,90.15
2018-03-06T21:40:01.630Z,89.82
2018-03-06T21:42:30.678Z,89.56
2018-03-06T21:44:59.748Z,90.43
2018-03-06T21:50:04.017Z,89.94
2018-03-06T21:52:33.076Z,89.13
2018-03-06T21:55:02.176Z,89.69
2018-03-06T21:57:31.255Z,89.97
2018-03-06T22:00:00.352Z,90.29
2018-03-06T22:02:29.394Z,90.64
2018-03-06T22:04:58.494Z,88.43
2018-03-06T22:07:27.533Z,89.46
2018-03-06T22:09:56.567Z,88.55
2018-03-06T22:12:25.685Z,87.68
2018-03-06T22:14:54.732Z,88.37
2018-03-06T22:17:23.772Z,88.09
2018-03-06T22:19:52.834Z,89.13
2018-03-06T22:22:21.897Z,89.91
2018-03-06T22:24:51.860Z,89.75
2018-03-06T22:27:20.912Z,90.55
2018-03-06T22:29:49.946Z,90.74
2018-03-06T22:32:22.564Z,90.61
2018-03-06T22:34:52.515Z,90.00
2018-03-06T22:37:26.224Z,90.47
2018-03-06T22:39:55.272Z,90.28
2018-03-06T22:42:24.352Z,91.63
2018-03-06T22:44:53.387Z,91.41
2018-03-06T22:47:22.423Z,90.67
2018-03-06T22:49:51.527Z,89.33
2018-03-06T22:52:20.584Z,89.14
2018-03-06T22:54:49.633Z,88.55
2018-03-06T22:57:18.693Z,89.19
2018-03-06T22:59:51.028Z,89.05
2018-03-06T23:02:20.083Z,88.56
2018-03-06T23:04:49.140Z,90.08
2018-03-06T23:07:18.192Z,90.91
2018-03-06T23:09:47.246Z,90.07
2018-03-06T23:12:16.292Z,90.16
2018-03-06T23:14:45.346Z,90.35
2018-03-06T23:17:14.415Z,90.27
2018-03-06T23:19:43.444Z,89.98
2018-03-06T23:22:12.496Z,89.48
2018-03-06T23:24:41.587Z,89.55
2018-03-06T23:27:10.643Z,88.98
2018-03-06T23:29:39.705Z,89.12
2018-03-06T23:32:08.749Z,89.50
2018-03-06T23:34:37.820Z,89.47
2018-03-06T23:37:06.863Z,89.47
2018-03-06T23:39:35.916Z,90.08
2018-03-06T23:42:07.827Z,89.47
2018-03-06T23:44:36.892Z,90.26
2018-03-06T23:47:05.945Z,90.09
2018-03-06T23:49:34.991Z,90.10
2018-03-06T23:52:04.063Z,89.92
2018-03-06T23:54:33.099Z,90.04
2018-03-06T23:57:02.154Z,89.93
2018-03-06T23:59:31.203Z,89.41
